METAR AND TAF INFORMATION
METAR FOR PAMD
ADDS - METARS form results

(1120 UTC 19 January 2019)
Data provider http://aviationweather.gov/metar/data/
 
METAR text: PAMD 191051Z AUTO 04005KT 10SM OVC022 02/00 A2948 RMK AO2 SLP973 T00170000 FZRANO
Conditions at: PAMD (MIDDLETON ISLAND, AK, US) observed 1051 UTC 19 January 2019
Temperature: 1.7°C (35°F)
Dewpoint: 0.0°C (32°F) [RH = 88%]
Pressure (altimeter): 29.48 inches Hg (998.4 mb)
[Sea-level pressure:  997.3 mb]
Winds: from the NE (40 degrees) at 6 MPH (5 knots; 2.6 m/s)
Visibility: 10 or more miles (16+ km)
Ceiling: 2200 feet AGL
Clouds: overcast cloud deck at 2200 feet AGL
Weather: automated observation with no human augmentation;
there may or may not be significant weather present at this time

 AIRPORT MAP

 RUNWAY INFORMATION
Runway 02 Runway length 4178 ft Runway width 115 ft
Runway elevation 100 ft Runway displaced threshold 1020 ft Runway heading 34
Runway 20 Runway length 4178 ft Runway width 115 ft
Runway elevation 100 ft Runway displaced threshold 0 ft Runway heading 214
Runway 13 Runway length 1500 ft Runway width 125 ft
Runway elevation 99 ft Runway displaced threshold 0 ft Runway heading 149
Runway 31 Runway length 1500 ft Runway width 125 ft
Runway elevation 97 ft Runway displaced threshold 0 ft Runway heading 329

 AIRPORT FREQUENCIES

 AIRPORT NEAR NAVIGATION AIDS



Powered by Virtual Airlines Manager [v2.6.2]